KMLJ/MLJ METAR and TAF weather

Enter ICAO airport designator
Station Type Date Time Source
KMLJ METAR 2019/02/16 06:55 UTC NOAA

KMLJ 160655Z AUTO 20003KT 2 1/2SM +RA BKN022 OVC032 14/14 A2979 RMK AO2


Station Type Date Time Source
KMLJ Decoded METAR 2019/02/16 06:55 UTC NOAA

Milledgeville, Baldwin County Airport, GA, United States (KMLJ) 33-09-15N 083-14-26W
Feb 16, 2019 - 01:55 AM EST / 2019.02.16 0655 UTC
Wind: from the SSW (200 degrees) at 3 MPH (3 KT):0
Visibility: 2 1/2 mile(s):0
Sky conditions: overcast
Weather: heavy rain
Temperature: 57 F (14 C)
Dew Point: 57 F (14 C)
Relative Humidity: 100%
Pressure (altimeter): 29.79 in. Hg (1008 hPa)
ob: KMLJ 160655Z AUTO 20003KT 2 1/2SM +RA BKN022 OVC032 14/14 A2979 RMK AO2
cycle: 7

Station Type Date Time Source
KMLJ TAF UTC NOAA

Error!


Example: see airport list